Pentyrch, United Kingdom
Current Conditions -  °F | °C
As of 4:50 AM on Thursday 23 Oct 2014 (Local Time) from EGFF Reporting Station
Overcast Overcast  
Wind Chill: 54°   Ceiling: 400
Heat Index: 54°   Visibility: 6mi
Dew Point: 52°   Wind: 10mph
Humidity: 94%   Direction: 230°SW
Pressure: 30.12"   Gusts: NA
Location:  51.53°N, 3.3°W
Report Text: EGFF 230350Z AUTO 23009KT 9999 BKN004 OVC015 12/11 Q1020 RERA REDZ
Loading
Personal Weather Stations






























Interactive Weather Map
Tropical Storm Tracking
New forecast layout! Learn more

10-Day Weather Forecast

Advertisements
Track Severe Weather on mobile